sensor_id;sensor_type;location;lat;lon;timestamp;P1;durP1;ratioP1;P2;durP2;ratioP2
13404;SDS011;6773;51.192;7.024;2022-11-20T00:00:47;16.90;;;10.23;;
13404;SDS011;6773;51.192;7.024;2022-11-20T00:03:13;15.30;;;9.93;;
13404;SDS011;6773;51.192;7.024;2022-11-20T00:05:39;14.97;;;10.13;;
13404;SDS011;6773;51.192;7.024;2022-11-20T00:08:05;16.73;;;10.50;;
13404;SDS011;6773;51.192;7.024;2022-11-20T00:10:30;13.93;;;9.87;;
13404;SDS011;6773;51.192;7.024;2022-11-20T00:12:59;13.53;;;10.27;;
13404;SDS011;6773;51.192;7.024;2022-11-20T00:15:25;16.47;;;10.23;;
13404;SDS011;6773;51.192;7.024;2022-11-20T00:17:51;16.27;;;10.83;;
13404;SDS011;6773;51.192;7.024;2022-11-20T00:20:17;14.23;;;9.93;;
13404;SDS011;6773;51.192;7.024;2022-11-20T00:22:43;16.77;;;10.57;;
13404;SDS011;6773;51.192;7.024;2022-11-20T00:25:08;15.50;;;10.63;;
13404;SDS011;6773;51.192;7.024;2022-11-20T00:27:34;18.37;;;11.10;;
13404;SDS011;6773;51.192;7.024;2022-11-20T00:29:59;15.13;;;10.30;;
13404;SDS011;6773;51.192;7.024;2022-11-20T00:32:25;16.50;;;10.53;;
13404;SDS011;6773;51.192;7.024;2022-11-20T00:34:51;16.03;;;10.43;;
13404;SDS011;6773;51.192;7.024;2022-11-20T00:37:17;16.43;;;11.10;;
13404;SDS011;6773;51.192;7.024;2022-11-20T00:39:42;16.37;;;11.63;;
13404;SDS011;6773;51.192;7.024;2022-11-20T00:42:08;17.10;;;10.90;;
13404;SDS011;6773;51.192;7.024;2022-11-20T00:44:33;17.50;;;10.97;;
13404;SDS011;6773;51.192;7.024;2022-11-20T00:46:59;17.00;;;11.57;;
13404;SDS011;6773;51.192;7.024;2022-11-20T00:49:24;19.00;;;11.60;;
13404;SDS011;6773;51.192;7.024;2022-11-20T00:51:50;16.43;;;10.97;;
13404;SDS011;6773;51.192;7.024;2022-11-20T00:54:16;17.53;;;11.80;;
13404;SDS011;6773;51.192;7.024;2022-11-20T00:56:41;18.80;;;11.47;;
13404;SDS011;6773;51.192;7.024;2022-11-20T00:59:08;16.37;;;11.33;;
13404;SDS011;6773;51.192;7.024;2022-11-20T01:01:34;16.00;;;11.20;;
13404;SDS011;6773;51.192;7.024;2022-11-20T01:04:01;20.77;;;12.23;;
13404;SDS011;6773;51.192;7.024;2022-11-20T01:06:32;17.67;;;11.67;;
13404;SDS011;6773;51.192;7.024;2022-11-20T01:09:00;16.83;;;11.27;;
13404;SDS011;6773;51.192;7.024;2022-11-20T01:11:29;15.93;;;11.57;;
13404;SDS011;6773;51.192;7.024;2022-11-20T01:13:57;17.73;;;11.70;;
13404;SDS011;6773;51.192;7.024;2022-11-20T01:16:25;16.80;;;10.67;;
13404;SDS011;6773;51.192;7.024;2022-11-20T01:18:53;17.60;;;11.37;;
13404;SDS011;6773;51.192;7.024;2022-11-20T01:21:25;17.80;;;11.80;;
13404;SDS011;6773;51.192;7.024;2022-11-20T01:23:52;14.67;;;10.47;;
13404;SDS011;6773;51.192;7.024;2022-11-20T01:26:19;16.63;;;11.90;;
13404;SDS011;6773;51.192;7.024;2022-11-20T01:28:46;12.83;;;10.37;;
13404;SDS011;6773;51.192;7.024;2022-11-20T01:31:16;17.83;;;11.70;;
13404;SDS011;6773;51.192;7.024;2022-11-20T01:34:04;18.63;;;12.33;;
13404;SDS011;6773;51.192;7.024;2022-11-20T01:36:31;19.90;;;12.33;;
13404;SDS011;6773;51.192;7.024;2022-11-20T01:38:59;18.20;;;11.20;;
13404;SDS011;6773;51.192;7.024;2022-11-20T01:41:28;17.90;;;10.70;;
13404;SDS011;6773;51.192;7.024;2022-11-20T01:44:13;18.17;;;11.67;;
13404;SDS011;6773;51.192;7.024;2022-11-20T01:46:42;18.57;;;11.77;;
13404;SDS011;6773;51.192;7.024;2022-11-20T01:49:20;17.57;;;11.50;;
13404;SDS011;6773;51.192;7.024;2022-11-20T01:51:49;19.10;;;11.10;;
13404;SDS011;6773;51.192;7.024;2022-11-20T01:54:40;19.53;;;12.30;;
13404;SDS011;6773;51.192;7.024;2022-11-20T01:57:12;17.00;;;11.20;;
13404;SDS011;6773;51.192;7.024;2022-11-20T01:59:41;19.23;;;12.80;;
13404;SDS011;6773;51.192;7.024;2022-11-20T02:02:12;18.83;;;12.43;;
13404;SDS011;6773;51.192;7.024;2022-11-20T02:04:39;19.13;;;11.83;;
13404;SDS011;6773;51.192;7.024;2022-11-20T02:07:05;19.10;;;12.60;;
13404;SDS011;6773;51.192;7.024;2022-11-20T02:09:31;20.27;;;12.60;;
13404;SDS011;6773;51.192;7.024;2022-11-20T02:11:56;17.80;;;11.77;;
13404;SDS011;6773;51.192;7.024;2022-11-20T02:14:23;18.83;;;12.20;;
13404;SDS011;6773;51.192;7.024;2022-11-20T02:16:50;17.37;;;11.57;;
13404;SDS011;6773;51.192;7.024;2022-11-20T02:19:23;19.47;;;12.53;;
13404;SDS011;6773;51.192;7.024;2022-11-20T02:24:21;17.47;;;11.27;;
13404;SDS011;6773;51.192;7.024;2022-11-20T02:32:05;18.60;;;12.93;;
13404;SDS011;6773;51.192;7.024;2022-11-20T02:34:31;18.30;;;12.40;;
13404;SDS011;6773;51.192;7.024;2022-11-20T02:36:57;20.13;;;11.90;;
13404;SDS011;6773;51.192;7.024;2022-11-20T02:39:25;19.33;;;12.27;;
13404;SDS011;6773;51.192;7.024;2022-11-20T02:41:55;18.80;;;12.87;;
13404;SDS011;6773;51.192;7.024;2022-11-20T02:44:22;20.17;;;12.27;;
13404;SDS011;6773;51.192;7.024;2022-11-20T02:46:48;18.97;;;12.93;;
13404;SDS011;6773;51.192;7.024;2022-11-20T02:49:14;17.83;;;12.10;;
13404;SDS011;6773;51.192;7.024;2022-11-20T02:51:41;20.00;;;12.60;;
13404;SDS011;6773;51.192;7.024;2022-11-20T02:54:07;18.67;;;12.47;;
13404;SDS011;6773;51.192;7.024;2022-11-20T02:56:33;23.40;;;13.93;;
13404;SDS011;6773;51.192;7.024;2022-11-20T02:58:59;19.97;;;11.97;;
13404;SDS011;6773;51.192;7.024;2022-11-20T03:01:25;21.50;;;13.77;;
13404;SDS011;6773;51.192;7.024;2022-11-20T03:03:50;21.93;;;12.87;;
13404;SDS011;6773;51.192;7.024;2022-11-20T03:06:19;20.23;;;13.27;;
13404;SDS011;6773;51.192;7.024;2022-11-20T03:08:45;20.20;;;13.60;;
13404;SDS011;6773;51.192;7.024;2022-11-20T03:11:10;19.20;;;12.70;;
13404;SDS011;6773;51.192;7.024;2022-11-20T03:13:36;19.93;;;12.73;;
13404;SDS011;6773;51.192;7.024;2022-11-20T03:16:09;21.13;;;13.70;;
13404;SDS011;6773;51.192;7.024;2022-11-20T03:18:40;22.13;;;13.63;;
13404;SDS011;6773;51.192;7.024;2022-11-20T03:21:07;19.70;;;12.90;;
13404;SDS011;6773;51.192;7.024;2022-11-20T03:23:33;20.00;;;12.93;;
13404;SDS011;6773;51.192;7.024;2022-11-20T03:26:07;19.57;;;13.60;;
13404;SDS011;6773;51.192;7.024;2022-11-20T03:28:50;18.97;;;12.13;;
13404;SDS011;6773;51.192;7.024;2022-11-20T03:31:18;20.80;;;13.80;;
13404;SDS011;6773;51.192;7.024;2022-11-20T03:33:46;19.87;;;13.10;;
13404;SDS011;6773;51.192;7.024;2022-11-20T03:36:12;24.30;;;13.77;;
13404;SDS011;6773;51.192;7.024;2022-11-20T03:38:40;18.50;;;12.43;;
13404;SDS011;6773;51.192;7.024;2022-11-20T03:41:07;19.80;;;12.70;;
13404;SDS011;6773;51.192;7.024;2022-11-20T03:43:34;20.13;;;13.07;;
13404;SDS011;6773;51.192;7.024;2022-11-20T03:46:01;19.23;;;13.20;;
13404;SDS011;6773;51.192;7.024;2022-11-20T03:48:27;21.63;;;12.87;;
13404;SDS011;6773;51.192;7.024;2022-11-20T03:50:53;23.10;;;13.93;;
13404;SDS011;6773;51.192;7.024;2022-11-20T03:53:51;20.47;;;12.47;;
13404;SDS011;6773;51.192;7.024;2022-11-20T03:56:19;20.67;;;14.10;;
13404;SDS011;6773;51.192;7.024;2022-11-20T03:58:48;20.77;;;13.37;;
13404;SDS011;6773;51.192;7.024;2022-11-20T04:01:15;22.87;;;13.37;;
13404;SDS011;6773;51.192;7.024;2022-11-20T04:03:46;22.53;;;13.20;;
13404;SDS011;6773;51.192;7.024;2022-11-20T04:06:13;23.50;;;13.40;;
13404;SDS011;6773;51.192;7.024;2022-11-20T04:08:40;24.20;;;14.50;;
13404;SDS011;6773;51.192;7.024;2022-11-20T04:13:45;23.07;;;13.70;;
13404;SDS011;6773;51.192;7.024;2022-11-20T04:16:12;23.17;;;14.07;;
13404;SDS011;6773;51.192;7.024;2022-11-20T04:18:38;20.43;;;13.47;;
13404;SDS011;6773;51.192;7.024;2022-11-20T04:21:04;19.73;;;13.77;;
13404;SDS011;6773;51.192;7.024;2022-11-20T04:23:30;22.00;;;13.97;;
13404;SDS011;6773;51.192;7.024;2022-11-20T04:26:03;19.87;;;12.80;;
13404;SDS011;6773;51.192;7.024;2022-11-20T04:28:33;20.30;;;13.47;;
13404;SDS011;6773;51.192;7.024;2022-11-20T04:31:07;20.50;;;13.20;;
13404;SDS011;6773;51.192;7.024;2022-11-20T04:33:33;19.43;;;12.60;;
13404;SDS011;6773;51.192;7.024;2022-11-20T04:36:03;18.90;;;12.63;;
13404;SDS011;6773;51.192;7.024;2022-11-20T04:38:35;20.70;;;12.93;;
13404;SDS011;6773;51.192;7.024;2022-11-20T04:41:02;19.57;;;12.57;;
13404;SDS011;6773;51.192;7.024;2022-11-20T04:43:29;20.20;;;12.97;;
13404;SDS011;6773;51.192;7.024;2022-11-20T04:45:56;18.80;;;12.47;;
13404;SDS011;6773;51.192;7.024;2022-11-20T04:48:23;19.83;;;12.37;;
13404;SDS011;6773;51.192;7.024;2022-11-20T04:50:50;21.37;;;13.20;;
13404;SDS011;6773;51.192;7.024;2022-11-20T04:53:16;21.23;;;12.77;;
13404;SDS011;6773;51.192;7.024;2022-11-20T04:55:41;16.80;;;11.53;;
13404;SDS011;6773;51.192;7.024;2022-11-20T04:58:07;19.93;;;12.20;;
13404;SDS011;6773;51.192;7.024;2022-11-20T05:00:33;19.07;;;13.00;;
13404;SDS011;6773;51.192;7.024;2022-11-20T05:02:58;19.27;;;12.43;;
13404;SDS011;6773;51.192;7.024;2022-11-20T05:05:24;19.10;;;13.07;;
13404;SDS011;6773;51.192;7.024;2022-11-20T05:07:49;17.97;;;12.00;;
13404;SDS011;6773;51.192;7.024;2022-11-20T05:10:15;20.43;;;13.00;;
13404;SDS011;6773;51.192;7.024;2022-11-20T05:12:41;16.47;;;11.67;;
13404;SDS011;6773;51.192;7.024;2022-11-20T05:15:07;18.50;;;11.60;;
13404;SDS011;6773;51.192;7.024;2022-11-20T05:17:33;18.20;;;12.17;;
13404;SDS011;6773;51.192;7.024;2022-11-20T05:19:58;19.87;;;12.90;;
13404;SDS011;6773;51.192;7.024;2022-11-20T05:22:24;17.97;;;12.00;;
13404;SDS011;6773;51.192;7.024;2022-11-20T05:24:49;16.67;;;11.70;;
13404;SDS011;6773;51.192;7.024;2022-11-20T05:27:15;17.27;;;11.70;;
13404;SDS011;6773;51.192;7.024;2022-11-20T05:29:40;15.87;;;10.93;;
13404;SDS011;6773;51.192;7.024;2022-11-20T05:32:06;17.60;;;11.60;;
13404;SDS011;6773;51.192;7.024;2022-11-20T05:34:34;19.57;;;12.33;;
13404;SDS011;6773;51.192;7.024;2022-11-20T05:37:00;18.33;;;11.87;;
13404;SDS011;6773;51.192;7.024;2022-11-20T05:39:26;19.27;;;12.07;;
13404;SDS011;6773;51.192;7.024;2022-11-20T05:41:52;19.37;;;12.77;;
13404;SDS011;6773;51.192;7.024;2022-11-20T05:44:38;16.93;;;11.83;;
13404;SDS011;6773;51.192;7.024;2022-11-20T05:47:04;16.40;;;11.37;;
13404;SDS011;6773;51.192;7.024;2022-11-20T05:49:29;18.80;;;12.07;;
13404;SDS011;6773;51.192;7.024;2022-11-20T05:51:55;17.33;;;11.93;;
13404;SDS011;6773;51.192;7.024;2022-11-20T05:54:21;17.83;;;12.33;;
13404;SDS011;6773;51.192;7.024;2022-11-20T05:56:46;17.90;;;11.87;;
13404;SDS011;6773;51.192;7.024;2022-11-20T05:59:12;16.67;;;11.67;;
13404;SDS011;6773;51.192;7.024;2022-11-20T06:01:37;19.03;;;12.57;;
13404;SDS011;6773;51.192;7.024;2022-11-20T06:04:03;17.20;;;12.13;;
13404;SDS011;6773;51.192;7.024;2022-11-20T06:06:29;18.40;;;12.30;;
13404;SDS011;6773;51.192;7.024;2022-11-20T06:08:55;19.77;;;12.30;;
13404;SDS011;6773;51.192;7.024;2022-11-20T06:11:20;18.93;;;12.50;;
13404;SDS011;6773;51.192;7.024;2022-11-20T06:13:46;18.83;;;12.17;;
13404;SDS011;6773;51.192;7.024;2022-11-20T06:16:13;19.50;;;12.80;;
13404;SDS011;6773;51.192;7.024;2022-11-20T06:18:40;19.83;;;12.00;;
13404;SDS011;6773;51.192;7.024;2022-11-20T06:21:10;19.43;;;11.97;;
13404;SDS011;6773;51.192;7.024;2022-11-20T06:23:37;19.53;;;12.30;;
13404;SDS011;6773;51.192;7.024;2022-11-20T06:28:31;19.67;;;12.20;;
13404;SDS011;6773;51.192;7.024;2022-11-20T06:30:57;19.23;;;12.57;;
13404;SDS011;6773;51.192;7.024;2022-11-20T06:33:23;19.60;;;12.43;;
13404;SDS011;6773;51.192;7.024;2022-11-20T06:35:49;19.50;;;11.30;;
13404;SDS011;6773;51.192;7.024;2022-11-20T06:38:14;17.70;;;12.13;;
13404;SDS011;6773;51.192;7.024;2022-11-20T06:40:40;17.60;;;12.63;;
13404;SDS011;6773;51.192;7.024;2022-11-20T06:43:07;16.77;;;11.43;;
13404;SDS011;6773;51.192;7.024;2022-11-20T06:45:33;19.73;;;12.90;;
13404;SDS011;6773;51.192;7.024;2022-11-20T06:47:59;21.10;;;13.40;;
13404;SDS011;6773;51.192;7.024;2022-11-20T06:50:24;15.83;;;11.87;;
13404;SDS011;6773;51.192;7.024;2022-11-20T06:52:50;18.70;;;12.83;;
13404;SDS011;6773;51.192;7.024;2022-11-20T06:55:16;20.50;;;13.10;;
13404;SDS011;6773;51.192;7.024;2022-11-20T06:57:42;21.23;;;13.70;;
13404;SDS011;6773;51.192;7.024;2022-11-20T07:00:08;19.73;;;12.20;;
13404;SDS011;6773;51.192;7.024;2022-11-20T07:02:34;21.17;;;12.50;;
13404;SDS011;6773;51.192;7.024;2022-11-20T07:05:00;19.83;;;12.57;;
13404;SDS011;6773;51.192;7.024;2022-11-20T07:07:25;19.17;;;12.93;;
13404;SDS011;6773;51.192;7.024;2022-11-20T07:09:51;19.53;;;13.53;;
13404;SDS011;6773;51.192;7.024;2022-11-20T07:12:17;20.57;;;12.90;;
13404;SDS011;6773;51.192;7.024;2022-11-20T07:14:42;20.17;;;14.20;;
13404;SDS011;6773;51.192;7.024;2022-11-20T07:17:08;21.33;;;11.63;;
13404;SDS011;6773;51.192;7.024;2022-11-20T07:19:33;18.70;;;12.83;;
13404;SDS011;6773;51.192;7.024;2022-11-20T07:21:59;20.90;;;13.87;;
13404;SDS011;6773;51.192;7.024;2022-11-20T07:24:24;21.13;;;13.80;;
13404;SDS011;6773;51.192;7.024;2022-11-20T07:26:50;23.07;;;14.03;;
13404;SDS011;6773;51.192;7.024;2022-11-20T07:29:16;22.47;;;13.40;;
13404;SDS011;6773;51.192;7.024;2022-11-20T07:31:42;20.63;;;13.43;;
13404;SDS011;6773;51.192;7.024;2022-11-20T07:34:07;22.03;;;13.73;;
13404;SDS011;6773;51.192;7.024;2022-11-20T07:36:33;21.60;;;14.07;;
13404;SDS011;6773;51.192;7.024;2022-11-20T07:38:59;21.80;;;14.23;;
13404;SDS011;6773;51.192;7.024;2022-11-20T07:41:25;22.90;;;13.87;;
13404;SDS011;6773;51.192;7.024;2022-11-20T07:43:50;21.00;;;14.00;;
13404;SDS011;6773;51.192;7.024;2022-11-20T07:46:16;18.63;;;13.20;;
13404;SDS011;6773;51.192;7.024;2022-11-20T07:48:41;20.37;;;12.50;;
13404;SDS011;6773;51.192;7.024;2022-11-20T07:51:07;18.50;;;12.00;;
13404;SDS011;6773;51.192;7.024;2022-11-20T07:53:33;20.03;;;13.33;;
13404;SDS011;6773;51.192;7.024;2022-11-20T07:55:59;19.13;;;12.27;;
13404;SDS011;6773;51.192;7.024;2022-11-20T07:58:26;20.67;;;13.03;;
13404;SDS011;6773;51.192;7.024;2022-11-20T08:00:54;19.37;;;12.47;;
13404;SDS011;6773;51.192;7.024;2022-11-20T08:03:19;18.77;;;12.67;;
13404;SDS011;6773;51.192;7.024;2022-11-20T08:05:45;21.10;;;13.20;;
13404;SDS011;6773;51.192;7.024;2022-11-20T08:08:11;21.67;;;13.83;;
13404;SDS011;6773;51.192;7.024;2022-11-20T08:10:36;21.53;;;13.57;;
13404;SDS011;6773;51.192;7.024;2022-11-20T08:13:02;23.63;;;13.40;;
13404;SDS011;6773;51.192;7.024;2022-11-20T08:15:50;20.50;;;13.10;;
13404;SDS011;6773;51.192;7.024;2022-11-20T08:18:15;22.13;;;14.37;;
13404;SDS011;6773;51.192;7.024;2022-11-20T08:20:42;20.30;;;14.07;;
13404;SDS011;6773;51.192;7.024;2022-11-20T08:23:08;20.23;;;13.23;;
13404;SDS011;6773;51.192;7.024;2022-11-20T08:25:34;19.40;;;13.27;;
13404;SDS011;6773;51.192;7.024;2022-11-20T08:28:02;20.63;;;12.37;;
13404;SDS011;6773;51.192;7.024;2022-11-20T08:30:32;19.33;;;12.77;;
13404;SDS011;6773;51.192;7.024;2022-11-20T08:33:05;18.33;;;13.03;;
13404;SDS011;6773;51.192;7.024;2022-11-20T08:35:33;22.37;;;13.00;;
13404;SDS011;6773;51.192;7.024;2022-11-20T08:38:01;18.97;;;13.37;;
13404;SDS011;6773;51.192;7.024;2022-11-20T08:40:27;20.83;;;13.90;;
13404;SDS011;6773;51.192;7.024;2022-11-20T08:42:53;18.67;;;13.13;;
13404;SDS011;6773;51.192;7.024;2022-11-20T08:45:19;21.27;;;13.50;;
13404;SDS011;6773;51.192;7.024;2022-11-20T08:47:45;18.60;;;12.20;;
13404;SDS011;6773;51.192;7.024;2022-11-20T08:50:11;18.83;;;12.73;;
13404;SDS011;6773;51.192;7.024;2022-11-20T08:52:38;19.73;;;12.83;;
13404;SDS011;6773;51.192;7.024;2022-11-20T08:55:04;19.83;;;12.93;;
13404;SDS011;6773;51.192;7.024;2022-11-20T08:57:37;19.00;;;12.47;;
13404;SDS011;6773;51.192;7.024;2022-11-20T09:00:04;17.63;;;11.87;;
13404;SDS011;6773;51.192;7.024;2022-11-20T09:02:30;17.23;;;12.00;;
13404;SDS011;6773;51.192;7.024;2022-11-20T09:04:57;16.67;;;10.70;;
13404;SDS011;6773;51.192;7.024;2022-11-20T09:07:23;17.77;;;11.93;;
13404;SDS011;6773;51.192;7.024;2022-11-20T09:09:48;18.73;;;11.30;;
13404;SDS011;6773;51.192;7.024;2022-11-20T09:12:15;16.10;;;10.73;;
13404;SDS011;6773;51.192;7.024;2022-11-20T09:14:40;18.43;;;12.70;;
13404;SDS011;6773;51.192;7.024;2022-11-20T09:17:06;15.00;;;10.10;;
13404;SDS011;6773;51.192;7.024;2022-11-20T09:19:32;15.80;;;10.67;;
13404;SDS011;6773;51.192;7.024;2022-11-20T09:21:58;15.13;;;10.03;;
13404;SDS011;6773;51.192;7.024;2022-11-20T09:24:25;14.17;;;9.77;;
13404;SDS011;6773;51.192;7.024;2022-11-20T09:26:51;14.17;;;9.63;;
13404;SDS011;6773;51.192;7.024;2022-11-20T09:29:16;13.50;;;9.33;;
13404;SDS011;6773;51.192;7.024;2022-11-20T09:31:42;15.07;;;9.70;;
13404;SDS011;6773;51.192;7.024;2022-11-20T09:34:07;17.07;;;10.03;;
13404;SDS011;6773;51.192;7.024;2022-11-20T09:36:33;20.03;;;13.60;;
13404;SDS011;6773;51.192;7.024;2022-11-20T09:38:58;14.40;;;10.50;;
13404;SDS011;6773;51.192;7.024;2022-11-20T09:41:32;16.30;;;11.17;;
13404;SDS011;6773;51.192;7.024;2022-11-20T09:45:01;47.40;;;33.00;;
13404;SDS011;6773;51.192;7.024;2022-11-20T09:52:55;16.70;;;11.37;;
13404;SDS011;6773;51.192;7.024;2022-11-20T09:55:41;14.10;;;9.33;;
13404;SDS011;6773;51.192;7.024;2022-11-20T09:58:07;13.83;;;10.20;;
13404;SDS011;6773;51.192;7.024;2022-11-20T10:00:48;14.73;;;10.10;;
13404;SDS011;6773;51.192;7.024;2022-11-20T10:03:16;15.93;;;11.67;;
13404;SDS011;6773;51.192;7.024;2022-11-20T10:06:07;19.43;;;11.43;;
13404;SDS011;6773;51.192;7.024;2022-11-20T10:11:45;17.07;;;12.43;;
13404;SDS011;6773;51.192;7.024;2022-11-20T10:19:44;19.03;;;12.10;;
13404;SDS011;6773;51.192;7.024;2022-11-20T10:27:54;17.60;;;11.73;;
13404;SDS011;6773;51.192;7.024;2022-11-20T10:30:22;13.93;;;9.97;;
13404;SDS011;6773;51.192;7.024;2022-11-20T10:35:54;16.03;;;10.03;;
13404;SDS011;6773;51.192;7.024;2022-11-20T10:38:37;15.63;;;10.30;;
13404;SDS011;6773;51.192;7.024;2022-11-20T10:41:11;16.60;;;9.87;;
13404;SDS011;6773;51.192;7.024;2022-11-20T10:43:58;16.17;;;12.27;;
13404;SDS011;6773;51.192;7.024;2022-11-20T10:46:25;16.17;;;11.27;;
13404;SDS011;6773;51.192;7.024;2022-11-20T10:49:02;16.43;;;10.57;;
13404;SDS011;6773;51.192;7.024;2022-11-20T10:54:36;17.27;;;10.43;;
13404;SDS011;6773;51.192;7.024;2022-11-20T11:02:31;17.17;;;12.27;;
13404;SDS011;6773;51.192;7.024;2022-11-20T11:04:58;17.27;;;11.40;;
13404;SDS011;6773;51.192;7.024;2022-11-20T11:07:35;13.80;;;10.00;;
13404;SDS011;6773;51.192;7.024;2022-11-20T11:10:05;16.17;;;10.97;;
13404;SDS011;6773;51.192;7.024;2022-11-20T11:12:50;17.00;;;11.47;;
13404;SDS011;6773;51.192;7.024;2022-11-20T11:15:29;17.53;;;11.27;;
13404;SDS011;6773;51.192;7.024;2022-11-20T11:18:08;17.90;;;11.40;;
13404;SDS011;6773;51.192;7.024;2022-11-20T11:20:35;16.97;;;11.70;;
13404;SDS011;6773;51.192;7.024;2022-11-20T11:23:01;18.23;;;12.47;;
13404;SDS011;6773;51.192;7.024;2022-11-20T11:25:28;20.43;;;12.43;;
13404;SDS011;6773;51.192;7.024;2022-11-20T11:27:56;18.73;;;12.87;;
13404;SDS011;6773;51.192;7.024;2022-11-20T11:30:24;19.53;;;12.43;;
13404;SDS011;6773;51.192;7.024;2022-11-20T11:33:01;19.47;;;12.30;;
13404;SDS011;6773;51.192;7.024;2022-11-20T11:35:31;18.20;;;11.90;;
13404;SDS011;6773;51.192;7.024;2022-11-20T11:38:05;20.03;;;13.93;;
13404;SDS011;6773;51.192;7.024;2022-11-20T11:40:36;21.13;;;11.97;;
13404;SDS011;6773;51.192;7.024;2022-11-20T11:43:05;17.97;;;12.63;;
13404;SDS011;6773;51.192;7.024;2022-11-20T11:46:00;19.67;;;12.63;;
13404;SDS011;6773;51.192;7.024;2022-11-20T11:48:26;17.63;;;11.50;;
13404;SDS011;6773;51.192;7.024;2022-11-20T11:50:52;19.97;;;12.80;;
13404;SDS011;6773;51.192;7.024;2022-11-20T11:53:19;17.77;;;12.50;;
13404;SDS011;6773;51.192;7.024;2022-11-20T11:56:04;19.20;;;11.97;;
13404;SDS011;6773;51.192;7.024;2022-11-20T11:58:44;19.03;;;12.00;;
13404;SDS011;6773;51.192;7.024;2022-11-20T12:07:50;18.13;;;12.90;;
13404;SDS011;6773;51.192;7.024;2022-11-20T12:10:04;18.63;;;10.67;;
13404;SDS011;6773;51.192;7.024;2022-11-20T12:12:38;18.80;;;13.60;;
13404;SDS011;6773;51.192;7.024;2022-11-20T12:15:09;24.30;;;12.80;;
13404;SDS011;6773;51.192;7.024;2022-11-20T12:17:37;19.20;;;12.00;;
13404;SDS011;6773;51.192;7.024;2022-11-20T12:20:05;19.80;;;12.23;;
13404;SDS011;6773;51.192;7.024;2022-11-20T12:22:44;17.10;;;11.77;;
13404;SDS011;6773;51.192;7.024;2022-11-20T12:25:27;18.83;;;12.30;;
13404;SDS011;6773;51.192;7.024;2022-11-20T12:30:25;15.43;;;11.30;;
13404;SDS011;6773;51.192;7.024;2022-11-20T12:32:58;21.63;;;13.30;;
13404;SDS011;6773;51.192;7.024;2022-11-20T12:52:56;19.00;;;12.50;;
13404;SDS011;6773;51.192;7.024;2022-11-20T12:58:40;21.60;;;12.93;;
13404;SDS011;6773;51.192;7.024;2022-11-20T13:04:47;20.20;;;11.93;;
13404;SDS011;6773;51.192;7.024;2022-11-20T13:07:10;22.07;;;13.70;;
13404;SDS011;6773;51.192;7.024;2022-11-20T13:09:42;19.43;;;13.03;;
13404;SDS011;6773;51.192;7.024;2022-11-20T13:12:13;20.63;;;13.60;;
13404;SDS011;6773;51.192;7.024;2022-11-20T13:20:13;23.73;;;14.43;;
13404;SDS011;6773;51.192;7.024;2022-11-20T13:25:30;22.90;;;14.73;;
13404;SDS011;6773;51.192;7.024;2022-11-20T13:27:59;24.67;;;15.40;;
13404;SDS011;6773;51.192;7.024;2022-11-20T13:30:29;27.37;;;15.47;;
13404;SDS011;6773;51.192;7.024;2022-11-20T13:33:06;26.43;;;16.60;;
13404;SDS011;6773;51.192;7.024;2022-11-20T13:35:35;25.40;;;14.93;;
13404;SDS011;6773;51.192;7.024;2022-11-20T13:40:35;31.27;;;19.20;;
13404;SDS011;6773;51.192;7.024;2022-11-20T13:45:59;29.33;;;17.53;;
13404;SDS011;6773;51.192;7.024;2022-11-20T13:48:29;33.47;;;17.60;;
13404;SDS011;6773;51.192;7.024;2022-11-20T13:51:03;28.13;;;16.83;;
13404;SDS011;6773;51.192;7.024;2022-11-20T14:01:47;33.47;;;16.97;;
13404;SDS011;6773;51.192;7.024;2022-11-20T14:04:15;30.30;;;18.13;;
13404;SDS011;6773;51.192;7.024;2022-11-20T14:06:46;31.43;;;18.27;;
13404;SDS011;6773;51.192;7.024;2022-11-20T14:09:34;30.63;;;17.90;;
13404;SDS011;6773;51.192;7.024;2022-11-20T14:12:00;31.77;;;17.63;;
13404;SDS011;6773;51.192;7.024;2022-11-20T14:14:28;28.87;;;17.50;;
13404;SDS011;6773;51.192;7.024;2022-11-20T14:17:08;33.57;;;17.73;;
13404;SDS011;6773;51.192;7.024;2022-11-20T14:19:42;34.73;;;18.37;;
13404;SDS011;6773;51.192;7.024;2022-11-20T14:22:16;30.30;;;18.43;;
13404;SDS011;6773;51.192;7.024;2022-11-20T14:24:45;34.70;;;17.87;;
13404;SDS011;6773;51.192;7.024;2022-11-20T14:27:25;31.77;;;17.67;;
13404;SDS011;6773;51.192;7.024;2022-11-20T14:29:50;36.27;;;18.50;;
13404;SDS011;6773;51.192;7.024;2022-11-20T14:32:17;31.90;;;18.23;;
13404;SDS011;6773;51.192;7.024;2022-11-20T14:34:45;29.57;;;17.33;;
13404;SDS011;6773;51.192;7.024;2022-11-20T14:37:17;30.40;;;17.23;;
13404;SDS011;6773;51.192;7.024;2022-11-20T14:39:54;29.50;;;16.97;;
13404;SDS011;6773;51.192;7.024;2022-11-20T14:42:22;30.77;;;16.47;;
13404;SDS011;6773;51.192;7.024;2022-11-20T14:44:49;29.53;;;17.37;;
13404;SDS011;6773;51.192;7.024;2022-11-20T14:47:26;36.57;;;18.47;;
13404;SDS011;6773;51.192;7.024;2022-11-20T14:49:54;34.13;;;17.27;;
13404;SDS011;6773;51.192;7.024;2022-11-20T14:52:22;29.43;;;17.47;;
13404;SDS011;6773;51.192;7.024;2022-11-20T14:54:50;26.30;;;17.43;;
13404;SDS011;6773;51.192;7.024;2022-11-20T15:00:02;31.47;;;16.87;;
13404;SDS011;6773;51.192;7.024;2022-11-20T15:02:49;28.07;;;16.57;;
13404;SDS011;6773;51.192;7.024;2022-11-20T15:05:16;30.93;;;16.57;;
13404;SDS011;6773;51.192;7.024;2022-11-20T15:07:45;25.07;;;15.83;;
13404;SDS011;6773;51.192;7.024;2022-11-20T15:10:19;26.23;;;16.03;;
13404;SDS011;6773;51.192;7.024;2022-11-20T15:12:53;28.30;;;14.63;;
13404;SDS011;6773;51.192;7.024;2022-11-20T15:18:14;27.53;;;16.07;;
13404;SDS011;6773;51.192;7.024;2022-11-20T15:20:41;27.23;;;14.87;;
13404;SDS011;6773;51.192;7.024;2022-11-20T15:23:12;24.23;;;14.87;;
13404;SDS011;6773;51.192;7.024;2022-11-20T15:25:45;25.27;;;14.50;;
13404;SDS011;6773;51.192;7.024;2022-11-20T15:28:16;25.43;;;14.83;;
13404;SDS011;6773;51.192;7.024;2022-11-20T15:30:42;25.40;;;15.23;;
13404;SDS011;6773;51.192;7.024;2022-11-20T15:33:08;23.37;;;14.27;;
13404;SDS011;6773;51.192;7.024;2022-11-20T15:35:35;23.50;;;14.83;;
13404;SDS011;6773;51.192;7.024;2022-11-20T15:38:01;25.33;;;15.00;;
13404;SDS011;6773;51.192;7.024;2022-11-20T15:40:26;25.83;;;15.37;;
13404;SDS011;6773;51.192;7.024;2022-11-20T15:42:52;26.27;;;15.63;;
13404;SDS011;6773;51.192;7.024;2022-11-20T15:48:11;21.10;;;13.53;;
13404;SDS011;6773;51.192;7.024;2022-11-20T15:53:30;24.87;;;14.83;;
13404;SDS011;6773;51.192;7.024;2022-11-20T15:55:56;22.83;;;13.97;;
13404;SDS011;6773;51.192;7.024;2022-11-20T15:58:22;23.33;;;13.77;;
13404;SDS011;6773;51.192;7.024;2022-11-20T16:00:49;24.27;;;15.17;;
13404;SDS011;6773;51.192;7.024;2022-11-20T16:03:16;20.93;;;14.07;;
13404;SDS011;6773;51.192;7.024;2022-11-20T16:05:42;26.83;;;15.33;;
13404;SDS011;6773;51.192;7.024;2022-11-20T16:08:07;26.47;;;15.57;;
13404;SDS011;6773;51.192;7.024;2022-11-20T16:10:33;25.20;;;15.03;;
13404;SDS011;6773;51.192;7.024;2022-11-20T16:13:00;25.37;;;15.17;;
13404;SDS011;6773;51.192;7.024;2022-11-20T16:15:45;25.80;;;14.90;;
13404;SDS011;6773;51.192;7.024;2022-11-20T16:18:18;23.97;;;17.10;;
13404;SDS011;6773;51.192;7.024;2022-11-20T16:20:48;30.97;;;16.30;;
13404;SDS011;6773;51.192;7.024;2022-11-20T16:23:16;24.60;;;14.67;;
13404;SDS011;6773;51.192;7.024;2022-11-20T16:25:42;27.23;;;15.87;;
13404;SDS011;6773;51.192;7.024;2022-11-20T16:28:08;26.50;;;15.90;;
13404;SDS011;6773;51.192;7.024;2022-11-20T16:30:34;29.40;;;16.80;;
13404;SDS011;6773;51.192;7.024;2022-11-20T16:33:00;29.67;;;15.43;;
13404;SDS011;6773;51.192;7.024;2022-11-20T16:35:27;33.63;;;19.93;;